Aviation Digital Data Service (ADDS)

Output produced by METARs form (0316 UTC 20 July 2018)
found at http://www.aviationweather.gov/adds/metars/
 
KDUJ 200253Z AUTO 12006KT 10SM CLR 19/14 A3010 RMK AO2 SLP181 T01940144 50007
KDUJ 200153Z AUTO 12005KT 10SM CLR 20/14 A3010 RMK AO2 SLP182 T02000144
KDUJ 200053Z AUTO 13004KT 10SM CLR 21/14 A3008 RMK AO2 SLP176 T02110144
KDUJ 192353Z AUTO 14003KT 10SM CLR 24/14 A3008 RMK AO2 SLP175 T02390139 10261 20233 58005
KDUJ 192253Z AUTO 19003KT 10SM CLR 25/14 A3008 RMK AO2 SLP177 T02500139
KDUJ 192153Z AUTO 20005KT 10SM CLR 26/14 A3009 RMK AO2 SLP180 T02560139
KDUJ 192053Z AUTO 24006KT 10SM CLR 26/14 A3009 RMK AO2 SLP181 T02560139 56012
KDUJ 191953Z AUTO 19003KT 10SM CLR 26/13 A3011 RMK AO2 SLP186 T02560128
KDUJ 191853Z AUTO VRB03KT 10SM CLR 24/13 A3011 RMK AO2 SLP187 T02440128
KDUJ 191753Z AUTO 25005KT 10SM FEW047 24/14 A3013 RMK AO2 SLP193 T02440139 10244 20144 58007
KDUJ 191653Z AUTO 25006KT 10SM SCT044 23/13 A3014 RMK AO2 SLP198 T02280133
KDUJ 191553Z AUTO 10SM BKN042 22/13 A3015 RMK AO2 SLP200 T02220133
KDUJ 191453Z AUTO VRB03KT 10SM CLR 21/12 A3015 RMK AO2 SLP201 T02110122 51005
KDUJ 191353Z AUTO 21003KT 10SM CLR 20/13 A3015 RMK AO2 SLP200 T02000133
KDUJ 191253Z AUTO VRB03KT 10SM CLR 18/12 A3014 RMK AO2 SLP197 T01780122 $
KDUJ 191153Z AUTO 08005KT 10SM CLR 14/12 A3014 RMK AO2 SLP197 7//// T01440122 10150 20111 50005 $
KDUJ 191053Z AUTO 08003KT 9SM BKN047 13/12 A3014 RMK AO2 SLP198 T01280117 $
KDUJ 190953Z AUTO 06004KT 8SM SCT046 12/12 A3013 RMK AO2 SLP196 T01220117 $
KDUJ 190853Z AUTO 10004KT 10SM SCT044 12/12 A3012 RMK AO2 SLP192 T01220117 53003 $
KDUJ 190753Z AUTO 09003KT 10SM FEW045 12/11 A3011 RMK AO2 SLP187 T01220111 $
KDUJ 190653Z AUTO 09004KT 10SM FEW046 15/12 A3010 RMK AO2 SLP184 T01500117 $
KDUJ 190553Z AUTO 00000KT 10SM SCT048 14/12 A3011 RMK AO2 SLPNO T01440117 10222 20139 51009 $
KDUJ 190453Z AUTO 06003KT 10SM CLR 15/12 A3010 RMK AO2 SLP182 T01500117 402440122 $
KDUJ 190353Z AUTO 35005KT 10SM CLR 17/12 A3010 RMK AO2 SLP182 T01670122 $
KDUJ 190253Z AUTO 01005KT 10SM CLR 18/12 A3008 RMK AO2 SLP177 T01780122 53013 $
KDUJ 190153Z AUTO 35007KT 10SM CLR 19/12 A3006 RMK AO2 SLP172 T01890122 $
KDUJ 190053Z AUTO 33004KT 10SM CLR 20/12 A3005 RMK AO2 SLP168 T02000122 $
KDUJ 182353Z AUTO 33003KT 10SM CLR 22/12 A3004 RMK AO2 SLP164 6//// T02220122 10244 20222 55001 $
KDUJ 182253Z AUTO 34007KT 10SM CLR 24/12 A3004 RMK AO2 SLP164 T02390117
KDUJ 182153Z AUTO 31005KT 10SM BKN055 BKN070 24/11 A3004 RMK AO2 SLP161 T02390111
KDUJ 182053Z AUTO 02005KT 10SM CLR 23/12 A3004 RMK AO2 SLP164 6//// T02330117
KDUJ 181953Z AUTO 32006KT 10SM FEW050 24/12 A3005 RMK AO2 SLP165 T02390122
KDUJ 181853Z AUTO 10SM FEW046 SCT070 23/13 A3006 RMK AO2 SLP169 T02330128
KDUJ 181653Z AUTO 33004KT 10SM 22/14 A3008 RMK AO2 SLP175 T02220139 PWINO
KDUJ 181553Z AUTO 32004KT 10SM SCT033 SCT041 BKN055 21/13 A3008 RMK AO2 SLP176 T02110133 $